• Join FlightAware (Why Join?)
  • Login
  • US Flag 
02:53PM EDT


 

Airport Tracker/Info


-or-


 

Live Flight TrackerFlight Track Log ✈ CTA307 ✈ 01-May-2013 ✈ KVGT - KPHX

Flight Track Log - Related Links

Times and Time Zones

All times are in EDT time to prevent confusion due to time zone crossing. See the CTA307 flight status page for this flight to view local times or setup timezone preferences in your user account.

Time Position Orientation Groundspeed Altitude Reporting Facility
EDT Latitude Longitude Course Direction KTS MPH feet Rate Location/Type
10:56PM 36.2331 -115.1478 136° Southeast 101 116 4,000  Level Los Angeles Center
10:57PM 36.2319 -115.1006 92° East 118 136 5,000 780 Climbing Los Angeles Center
10:58PM 36.2306 -115.0639 93° East 123 142 5,600 720 Climbing Los Angeles Center
10:59PM 36.2294 -115.0189 92° East 127 146 6,400 600 Climbing Los Angeles Center
11:00PM 35.9855 -114.9243 136° Southeast  Level Estimated
11:00PM 36.2167 -114.9806 112° Southeast 158 182 6,800  Level Los Angeles Center
11:01PM 35.9479 -114.8795 136° Southeast  Level Estimated
11:01PM 36.1806 -114.9339 134° Southeast 177 204 6,900  Level Los Angeles Center
11:01PM 36.1783 -114.9292 120° Southeast 166 191 6,900 60 Level Los Angeles Center
11:02PM 36.1439 -114.8847 134° Southeast 191 220 7,000  Climbing Los Angeles Center
11:02PM 36.1356 -114.8711 127° Southeast 184 212 6,900 -120 Descending Los Angeles Center
11:03PM 36.1067 -114.8333 133° Southeast 199 229 6,900  Level Los Angeles Center
11:03PM 36.0989 -114.8197 125° Southeast 193 222 6,900 60 Level Los Angeles Center
11:04PM 36.0703 -114.7867 137° Southeast 201 231 7,000 660 Climbing Los Angeles Center
11:04PM 36.0611 -114.7694 123° Southeast 197 227 7,600 840 Climbing Los Angeles Center
11:05PM 36.0317 -114.7386 140° Southeast 186 214 7,900 540 Climbing Los Angeles Center
11:05PM 36.0239 -114.7264 128° Southeast 191 220 8,200 780 Climbing Los Angeles Center
11:06PM 36.0011 -114.6983 135° Southeast 167 192 8,700 540 Climbing Los Angeles Center
11:06PM 35.9922 -114.6864 133° Southeast 171 197 8,800 660 Climbing Los Angeles Center
11:07PM 35.9650 -114.6625 145° Southeast 162 186 9,400 540 Climbing Los Angeles Center
11:07PM 35.9589 -114.6519 126° Southeast 159 183 9,400 120 Level Los Angeles Center
11:08PM 35.9278 -114.6217 142° Southeast 165 190 9,600 180 Climbing Los Angeles Center
11:08PM 35.9128 -114.6058 139° Southeast 171 197 9,600  Level Los Angeles Center
11:09PM 35.8739 -114.5606 137° Southeast 186 214 9,600  Level Los Angeles Center
11:10PM 35.8328 -114.5119 136° Southeast 199 229 9,600  Level Los Angeles Center
11:11PM 35.7911 -114.4639 137° Southeast 204 235 9,600  Level Los Angeles Center
11:12PM 35.7519 -114.4169 136° Southeast 199 229 9,600  Level Los Angeles Center
11:13PM 35.7092 -114.3703 138° Southeast 202 232 9,600  Level Los Angeles Center
11:14PM 35.6697 -114.3247 137° Southeast 197 227 9,600  Level Los Angeles Center
11:15PM 35.6186 -114.2739 141° Southeast 197 227 9,600  Level Los Angeles Center
11:16PM 35.5836 -114.2353 138° Southeast 197 227 9,600 -60 Level Los Angeles Center
11:18PM 35.5411 -114.1933 141° Southeast 196 226 9,500  Descending Los Angeles Center
11:19PM 35.4928 -114.1433 140° Southeast 190 219 9,600  Climbing Los Angeles Center
11:20PM 35.4536 -114.1006 138° Southeast 190 219 9,600  Level Los Angeles Center
11:21PM 35.4175 -114.0575 136° Southeast 188 216 9,600 -60 Level Los Angeles Center
11:22PM 35.3786 -114.0136 137° Southeast 188 216 9,500  Descending Los Angeles Center
11:23PM 35.3306 -113.9653 141° Southeast 187 215 9,600  Climbing Los Angeles Center
11:24PM 35.2839 -113.9161 139° Southeast 184 212 9,500  Descending Los Angeles Center
11:25PM 35.2450 -113.8744 139° Southeast 185 213 9,600  Climbing Los Angeles Center
11:26PM 35.2069 -113.8331 138° Southeast 185 213 9,600  Level Los Angeles Center
11:27PM 35.1686 -113.7908 138° Southeast 186 214 9,600  Level Los Angeles Center
11:28PM 35.1303 -113.7464 137° Southeast 188 216 9,600  Level Los Angeles Center
11:29PM 35.0925 -113.7019 136° Southeast 189 217 9,600 -60 Level Los Angeles Center
11:30PM 35.0469 -113.6536 139° Southeast 185 213 9,500  Descending Los Angeles Center
11:31PM 35.0092 -113.6128 138° Southeast 184 212 9,600  Climbing Los Angeles Center
11:32PM 34.9714 -113.5719 138° Southeast 183 211 9,600 -60 Level Los Angeles Center
11:33PM 34.9339 -113.5292 137° Southeast 184 212 9,500  Descending Los Angeles Center
11:34PM 34.8944 -113.4872 139° Southeast 188 216 9,600  Climbing Los Angeles Center
11:35PM 34.8625 -113.4542 140° Southeast 189 217 9,600  Level Albuquerque Center
11:36PM 34.8256 -113.4114 136° Southeast 186 214 9,600  Level Albuquerque Center
11:37PM 34.7889 -113.3697 137° Southeast 183 211 9,600  Level Albuquerque Center
11:38PM 34.7517 -113.3294 138° Southeast 181 208 9,600  Level Albuquerque Center
11:39PM 34.7072 -113.2811 138° Southeast 181 208 9,600 -60 Level Albuquerque Center
11:40PM 34.6675 -113.2419 141° Southeast 182 209 9,500 -60 Descending Albuquerque Center
11:41PM 34.6292 -113.2028 140° Southeast 182 209 9,500  Level Albuquerque Center
11:42PM 34.5928 -113.1642 139° Southeast 180 207 9,600  Climbing Albuquerque Center
11:43PM 34.5558 -113.1256 139° Southeast 178 205 9,600  Level Albuquerque Center
11:44PM 34.5197 -113.0864 138° Southeast 176 203 9,600 -60 Level Albuquerque Center
11:45PM 34.4822 -113.0458 138° Southeast 178 205 9,500  Descending Albuquerque Center
11:46PM 34.4428 -113.0028 138° Southeast 180 207 9,600  Climbing Albuquerque Center
11:47PM 34.4042 -112.9625 139° Southeast 183 211 9,600  Level Albuquerque Center
11:48PM 34.3633 -112.9125 135° Southeast 186 214 9,600  Level Albuquerque Center
11:49PM 34.3247 -112.8703 138° Southeast 189 217 9,600  Level Albuquerque Center
11:50PM 34.2789 -112.8206 138° Southeast 185 213 9,600  Level Albuquerque Center
11:51PM 34.2408 -112.7775 137° Southeast 187 215 9,600 -60 Level Albuquerque Center
11:52PM 34.2019 -112.7364 139° Southeast 186 214 9,500 -120 Descending Albuquerque Center
11:53PM 34.1647 -112.6936 136° Southeast 184 212 9,400 -60 Descending Albuquerque Center
11:54PM 34.1267 -112.6528 138° Southeast 183 211 9,400  Level Albuquerque Center
11:55PM 34.0878 -112.6106 138° Southeast 187 215 9,400  Level Albuquerque Center
11:56PM 34.0492 -112.5675 137° Southeast 188 216 9,400  Level Albuquerque Center
11:57PM 34.0106 -112.5244 137° Southeast 189 217 9,400 60 Level Albuquerque Center
11:58PM 33.9653 -112.4764 139° Southeast 182 209 9,600 60 Climbing Albuquerque Center
11:59PM 33.9292 -112.4369 138° Southeast 176 203 9,600  Level Albuquerque Center
12:01AM 33.8903 -112.3969 140° Southeast 184 212 9,600  Level Albuquerque Center
12:02AM 33.8531 -112.3556 137° Southeast 184 212 9,600 -360 Level Albuquerque Center
12:03AM 33.8122 -112.3139 140° Southeast 194 223 8,900 -840 Descending Albuquerque Center
12:04AM 33.7681 -112.2625 136° Southeast 220 253 7,900 -900 Descending Albuquerque Center
12:05AM 33.7250 -112.2094 134° Southeast 223 257 7,100 -900 Descending Albuquerque Center
12:06AM 33.6833 -112.1578 134° Southeast 218 251 6,100 -540 Descending Albuquerque Center
12:07AM 33.6353 -112.1019 136° Southeast 201 231 6,100 -540 Level Albuquerque Center
12:08AM 33.5933 -112.0597 140° Southeast 199 229 5,100 -540 Descending Albuquerque Center
12:09AM 33.5506 -112.0178 141° Southeast 198 228 5,100 -240 Level Albuquerque Center
12:10AM 33.5050 -111.9911 154° Southeast 190 219 4,700 -300 Descending Albuquerque Center
12:11AM 33.4583 -111.9844 173° South 171 197 4,600  Descending Albuquerque Center
12:12AM 33.4147 -111.9825 178° South 159 183 4,700 -120 Climbing Albuquerque Center
12:13AM 33.3736 -111.9725 169° South 155 178 4,400 -840 Descending Albuquerque Center
12:14AM 33.3989 -111.9547 30° Northeast 149 171 3,000 -1,440 Descending Albuquerque Center
12:15AM 33.4269 -111.9892 314° West 128 147 1,500 -900 Descending Albuquerque Center
12:16AM 33.4283 -112.0142 274° West 73 84 1,200 -300 Descending Albuquerque Center